Bg Felixstowe — V2BR7 — position and weather

sailwx.info

Track history (hours):
 
Tides and Currents Weather Stations Pressure Air Temp Water Temp Dewpoint Dewpoint Depression Visibility Wind Speed Wind Dir Waves Ship Positions

Bg Felixstowe

Last reported at 2017-Jun-19 08:01 UTC. Time now 2017-Jun-24 10:13 UTC.
Position N 25°06' W 080°08'.

Length 139 m; draft 7 m.

Type: Ship. MMSI: 304906000.

Date/timePositionNaut miles runAvg speedWind from/ knotsBaromVisibWave heightAir tempDewpointWater temp
2017-Jun-19 08:01N 25°06' W 080°08'111.6
2017-Jun-19 07:57N 25°07' W 080°07'511.6
2017-Jun-19 07:30N 25°11' W 080°05'611.7
2017-Jun-19 07:00N 25°17' W 080°02'612.2
2017-Jun-19 06:29N 25°22' W 079°59'612.3
2017-Jun-19 06:00N 25°28' W 079°60'612.7
2017-Jun-19 05:30N 25°35' W 080°00'612.7
2017-Jun-19 05:00N 25°41' W 080°02'611.5
2017-Jun-19 04:30N 25°46' W 080°05'5 9.5
2017-Jun-19 04:00N 25°46' W 080°10'0 0.5
2017-Jun-19 03:29N 25°46' W 080°10'0 0.0
2017-Jun-19 02:59N 25°46' W 080°10'0 0.0
2017-Jun-19 02:26N 25°46' W 080°10'0 0.0
2017-Jun-19 01:59N 25°46' W 080°10'0 0.0
2017-Jun-19 01:25N 25°46' W 080°10'0 0.0
2017-Jun-19 00:58N 25°46' W 080°10'0 0.0
2017-Jun-19 00:28N 25°46' W 080°10'0 0.0
2017-Jun-18 23:55N 25°46' W 080°10'0 0.0
2017-Jun-18 23:28N 25°46' W 080°10'0 0.0
2017-Jun-18 23:00N 25°46' W 080°10'0 0.0
2017-Jun-18 22:30N 25°46' W 080°10'0 0.0
2017-Jun-18 22:00N 25°46' W 080°10'0 0.0
2017-Jun-18 21:30N 25°46' W 080°10'0 0.0
2017-Jun-18 21:00N 25°46' W 080°10'0 0.0
2017-Jun-18 20:29N 25°46' W 080°10'0 0.0
2017-Jun-18 19:59N 25°46' W 080°10'0 0.0
2017-Jun-18 19:29N 25°46' W 080°10'0 0.0
2017-Jun-18 18:59N 25°46' W 080°10'0 0.0
2017-Jun-18 18:28N 25°46' W 080°10'0 0.0
2017-Jun-18 17:58N 25°46' W 080°10'0 0.0
2017-Jun-18 17:28N 25°46' W 080°10'0 0.0
2017-Jun-18 16:58N 25°46' W 080°10'0 0.0
2017-Jun-18 16:28N 25°46' W 080°10'0 0.0
2017-Jun-18 16:00N 25°46' W 080°10'0 0.0
2017-Jun-18 15:30N 25°46' W 080°10'0 0.0
2017-Jun-18 15:00N 25°46' W 080°10'0 0.0
2017-Jun-18 13:59N 25°46' W 080°10'0 0.0
2017-Jun-18 13:29N 25°46' W 080°10'0 0.0
2017-Jun-18 12:59N 25°46' W 080°10'0 0.0
2017-Jun-18 12:29N 25°46' W 080°10'0 0.0
2017-Jun-18 11:56N 25°46' W 080°10'1 1.6
2017-Jun-18 11:31N 25°46' W 080°09'5 9.7
2017-Jun-18 11:00N 25°44' W 080°04'917.7
2017-Jun-18 10:30N 25°36' W 079°60'918.5
2017-Jun-18 10:00N 25°27' W 079°60'918.3
2017-Jun-18 09:30N 25°18' W 080°02'  
2017-Jun-12 06:24N 25°13' W 080°04'512.7
2017-Jun-12 06:00N 25°17' W 080°02'612.6
2017-Jun-12 05:30N 25°24' W 080°00'713.3
2017-Jun-12 05:00N 25°30' W 080°00'713.7
2017-Jun-12 04:30N 25°37' W 080°01'713.6
2017-Jun-12 04:00N 25°44' W 080°02'4 8.2
2017-Jun-12 03:30N 25°46' W 080°06'4 7.1
2017-Jun-12 03:00N 25°46' W 080°10'0 0.4
2017-Jun-12 02:29N 25°46' W 080°10'0 0.0
2017-Jun-12 01:59N 25°46' W 080°10'0 0.0
2017-Jun-12 01:29N 25°46' W 080°10'0 0.0
2017-Jun-12 00:59N 25°46' W 080°10'0 0.0
2017-Jun-12 00:28N 25°46' W 080°10'0 0.0
2017-Jun-11 23:58N 25°46' W 080°10'0 0.0
2017-Jun-11 23:28N 25°46' W 080°10'0 0.0
2017-Jun-11 22:58N 25°46' W 080°10'0 0.0
2017-Jun-11 22:28N 25°46' W 080°10'0 0.0
2017-Jun-11 22:00N 25°46' W 080°10'0 0.0
2017-Jun-11 21:30N 25°46' W 080°10'0 0.0
2017-Jun-11 20:57N 25°46' W 080°10'0 0.0
2017-Jun-11 20:30N 25°46' W 080°10'0 0.0
2017-Jun-11 19:59N 25°46' W 080°10'0 0.0
2017-Jun-11 19:26N 25°46' W 080°10'0 0.0
2017-Jun-11 18:59N 25°46' W 080°10'0 0.0
2017-Jun-11 18:29N 25°46' W 080°10'0 0.0
2017-Jun-11 17:59N 25°46' W 080°10'0 0.0
2017-Jun-11 17:28N 25°46' W 080°10'0 0.0
2017-Jun-11 16:58N 25°46' W 080°10'0 0.0
2017-Jun-11 16:28N 25°46' W 080°10'0 0.0
2017-Jun-11 15:58N 25°46' W 080°10'0 0.0
2017-Jun-11 15:28N 25°46' W 080°10'0 0.0
2017-Jun-11 15:00N 25°46' W 080°10'0 0.0
2017-Jun-11 14:30N 25°46' W 080°10'0 0.0
2017-Jun-11 13:30N 25°46' W 080°10'0 0.0
2017-Jun-11 12:59N 25°46' W 080°10'0 0.0
2017-Jun-11 12:29N 25°46' W 080°10'0 0.0
2017-Jun-11 11:53N 25°46' W 080°10'1 1.4
2017-Jun-11 11:31N 25°46' W 080°09'5 9.3
2017-Jun-11 11:00N 25°46' W 080°04'612.0
2017-Jun-11 10:30N 25°40' W 080°02'815.8
2017-Jun-11 10:00N 25°32' W 079°60'816.4
2017-Jun-11 09:30N 25°24' W 080°00'816.6
2017-Jun-11 09:00N 25°16' W 080°03'  
Track history (hours):
 
Tides and Currents Weather Stations Pressure Air Temp Water Temp Dewpoint Dewpoint Depression Visibility Wind Speed Wind Dir Waves Ship Positions

Bg Felixstowe

Last reported at 2017-Jun-19 08:01 UTC. Time now 2017-Jun-24 10:13 UTC.
Position N 25°06' W 080°08'.

Length 139 m; draft 7 m.

Type: Ship. MMSI: 304906000.

Date/timePositionNaut miles runAvg speedWind from/ knotsBaromVisibWave heightAir tempDewpointWater temp
2017-Jun-19 08:01N 25°06' W 080°08'111.6
2017-Jun-19 07:57N 25°07' W 080°07'511.6
2017-Jun-19 07:30N 25°11' W 080°05'611.7
2017-Jun-19 07:00N 25°17' W 080°02'612.2
2017-Jun-19 06:29N 25°22' W 079°59'612.3
2017-Jun-19 06:00N 25°28' W 079°60'612.7
2017-Jun-19 05:30N 25°35' W 080°00'612.7
2017-Jun-19 05:00N 25°41' W 080°02'611.5
2017-Jun-19 04:30N 25°46' W 080°05'5 9.5
2017-Jun-19 04:00N 25°46' W 080°10'0 0.5
2017-Jun-19 03:29N 25°46' W 080°10'0 0.0
2017-Jun-19 02:59N 25°46' W 080°10'0 0.0
2017-Jun-19 02:26N 25°46' W 080°10'0 0.0
2017-Jun-19 01:59N 25°46' W 080°10'0 0.0
2017-Jun-19 01:25N 25°46' W 080°10'0 0.0
2017-Jun-19 00:58N 25°46' W 080°10'0 0.0
2017-Jun-19 00:28N 25°46' W 080°10'0 0.0
2017-Jun-18 23:55N 25°46' W 080°10'0 0.0
2017-Jun-18 23:28N 25°46' W 080°10'0 0.0
2017-Jun-18 23:00N 25°46' W 080°10'0 0.0
2017-Jun-18 22:30N 25°46' W 080°10'0 0.0
2017-Jun-18 22:00N 25°46' W 080°10'0 0.0
2017-Jun-18 21:30N 25°46' W 080°10'0 0.0
2017-Jun-18 21:00N 25°46' W 080°10'0 0.0
2017-Jun-18 20:29N 25°46' W 080°10'0 0.0
2017-Jun-18 19:59N 25°46' W 080°10'0 0.0
2017-Jun-18 19:29N 25°46' W 080°10'0 0.0
2017-Jun-18 18:59N 25°46' W 080°10'0 0.0
2017-Jun-18 18:28N 25°46' W 080°10'0 0.0
2017-Jun-18 17:58N 25°46' W 080°10'0 0.0
2017-Jun-18 17:28N 25°46' W 080°10'0 0.0
2017-Jun-18 16:58N 25°46' W 080°10'0 0.0
2017-Jun-18 16:28N 25°46' W 080°10'0 0.0
2017-Jun-18 16:00N 25°46' W 080°10'0 0.0
2017-Jun-18 15:30N 25°46' W 080°10'0 0.0
2017-Jun-18 15:00N 25°46' W 080°10'0 0.0
2017-Jun-18 13:59N 25°46' W 080°10'0 0.0
2017-Jun-18 13:29N 25°46' W 080°10'0 0.0
2017-Jun-18 12:59N 25°46' W 080°10'0 0.0
2017-Jun-18 12:29N 25°46' W 080°10'0 0.0
2017-Jun-18 11:56N 25°46' W 080°10'1 1.6
2017-Jun-18 11:31N 25°46' W 080°09'5 9.7
2017-Jun-18 11:00N 25°44' W 080°04'917.7
2017-Jun-18 10:30N 25°36' W 079°60'918.5
2017-Jun-18 10:00N 25°27' W 079°60'918.3
2017-Jun-18 09:30N 25°18' W 080°02'  
2017-Jun-12 06:24N 25°13' W 080°04'512.7
2017-Jun-12 06:00N 25°17' W 080°02'612.6
2017-Jun-12 05:30N 25°24' W 080°00'713.3
2017-Jun-12 05:00N 25°30' W 080°00'713.7
2017-Jun-12 04:30N 25°37' W 080°01'713.6
2017-Jun-12 04:00N 25°44' W 080°02'4 8.2
2017-Jun-12 03:30N 25°46' W 080°06'4 7.1
2017-Jun-12 03:00N 25°46' W 080°10'0 0.4
2017-Jun-12 02:29N 25°46' W 080°10'0 0.0
2017-Jun-12 01:59N 25°46' W 080°10'0 0.0
2017-Jun-12 01:29N 25°46' W 080°10'0 0.0
2017-Jun-12 00:59N 25°46' W 080°10'0 0.0
2017-Jun-12 00:28N 25°46' W 080°10'0 0.0
2017-Jun-11 23:58N 25°46' W 080°10'0 0.0
2017-Jun-11 23:28N 25°46' W 080°10'0 0.0
2017-Jun-11 22:58N 25°46' W 080°10'0 0.0
2017-Jun-11 22:28N 25°46' W 080°10'0 0.0
2017-Jun-11 22:00N 25°46' W 080°10'0 0.0
2017-Jun-11 21:30N 25°46' W 080°10'0 0.0
2017-Jun-11 20:57N 25°46' W 080°10'0 0.0
2017-Jun-11 20:30N 25°46' W 080°10'0 0.0
2017-Jun-11 19:59N 25°46' W 080°10'0 0.0
2017-Jun-11 19:26N 25°46' W 080°10'0 0.0
2017-Jun-11 18:59N 25°46' W 080°10'0 0.0
2017-Jun-11 18:29N 25°46' W 080°10'0 0.0
2017-Jun-11 17:59N 25°46' W 080°10'0 0.0
2017-Jun-11 17:28N 25°46' W 080°10'0 0.0
2017-Jun-11 16:58N 25°46' W 080°10'0 0.0
2017-Jun-11 16:28N 25°46' W 080°10'0 0.0
2017-Jun-11 15:58N 25°46' W 080°10'0 0.0
2017-Jun-11 15:28N 25°46' W 080°10'0 0.0
2017-Jun-11 15:00N 25°46' W 080°10'0 0.0
2017-Jun-11 14:30N 25°46' W 080°10'0 0.0
2017-Jun-11 13:30N 25°46' W 080°10'0 0.0
2017-Jun-11 12:59N 25°46' W 080°10'0 0.0
2017-Jun-11 12:29N 25°46' W 080°10'0 0.0
2017-Jun-11 11:53N 25°46' W 080°10'1 1.4
2017-Jun-11 11:31N 25°46' W 080°09'5 9.3
2017-Jun-11 11:00N 25°46' W 080°04'612.0
2017-Jun-11 10:30N 25°40' W 080°02'815.8
2017-Jun-11 10:00N 25°32' W 079°60'816.4
2017-Jun-11 09:30N 25°24' W 080°00'816.6
2017-Jun-11 09:00N 25°16' W 080°03'  

Dump ship's entire track history